EDMO

Oberpfaffenhofen Airport

Germany
METAR EDMO 201450Z 05005KT 6000 -SN SCT009 BKN042 M03/M04 Q1013
Observed Flight Rules
Feb-20 @ 14:50 UTC (2 hours ago) Marginal Visual Flight Rules
Wind Visibility Clouds Conditions
50° at 5 knots 6,003 meters
  • Scattered at 900' AGL
  • Broken at 4,200' AGL
  • Light Snow
Temperatures Readings
Current -3°C / 27°F
Dewpoint -4°C / 25°F
Humidity 93%
Altimeter 29.91" Hg
Pressure 1013 hPa
Elevation 600
METAR EDMO 201450Z 05005KT 6000 -SN SCT009 BKN042 M03/M04 Q1013
Observed Flight Rules
Feb-20 @ 14:50 UTC
(2 hours ago)
MVFR
Wind Visibility
50° at 5 knots 6,003 meters
Clouds
  • Scattered at 900' AGL
  • Broken at 4,200' AGL
Conditions
  • Light Snow
Temperature Dewpoint
-3°C / 27°F -4°C / 25°F
Humidity Altimeter Pressure
93% 29.91" Hg 1013 hPa